Terminal Aerodrome Forecast
Issued by NWS

Home | Current Version | Previous Version | Graphics & Text | Print | Product List | Glossary Off
Versions: 1 2 3 4 5 6 7 8 9 10 11 12 13 14 15 16 17

000
FTUS43 KOAX 241009 AAA
TAFCDR
TAF AMD
KCDR 241009Z 2410/2506 10008KT P6SM SCT015 BKN050 OVC070
      TEMPO 2410/2413 3SM RA BR BKN007 OVC015
     FM241600 08008KT P6SM BKN015 BKN025
     FM241800 12010KT P6SM -SHRA VCTS BKN025CB=

USA.gov is the U.S. government's official web portal to all federal, state and local government web resources and services.